Time;durP1;ratioP1;P1;durP2;ratioP2;P2;SDS_P1;SDS_P2;PMS_P1;PMS_P2;Temp;Humidity;BMP_temperature;BMP_pressure;BME280_temperature;BME280_humidity;BME280_pressure;Samples;Min_cycle;Max_cycle;Signal;HPM_P1;HPM_P2
2022/02/09 00:00:42;;;;;;;10.73;3.30;;;9.10;99.90;;;;;;5041238;28;20041;-70
2022/02/09 00:08:23;;;;;;;10.82;4.25;;;9.10;99.90;;;;;;5042273;28;20097;-70
2022/02/09 00:10:55;;;;;;;9.23;3.75;;;9.10;99.90;;;;;;5038850;28;20056;-70
2022/02/09 00:13:38;;;;;;;8.90;3.85;;;9.10;99.90;;;;;;5040756;28;20041;-70
2022/02/09 00:16:49;;;;;;;10.43;4.30;;;9.10;99.90;;;;;;5055801;28;20081;-70
2022/02/09 00:19:17;;;;;;;9.55;3.85;;;9.10;99.90;;;;;;5042457;28;20441;-70
2022/02/09 01:56:02;;;;;;;13.45;4.75;;;9.10;99.90;;;;;;5041252;28;20136;-70
2022/02/09 01:58:28;;;;;;;6.93;3.90;;;9.10;99.90;;;;;;5038995;28;20056;-70
2022/02/09 02:00:54;;;;;;;10.48;4.20;;;9.10;99.90;;;;;;5039942;28;20033;-70
2022/02/09 02:03:19;;;;;;;10.52;4.35;;;9.20;99.90;;;;;;5023589;28;20047;-70
2022/02/09 02:05:45;;;;;;;10.57;4.65;;;9.20;99.90;;;;;;5039021;28;20429;-70
2022/02/09 02:08:12;;;;;;;8.25;4.30;;;9.10;99.90;;;;;;5038197;28;20442;-70
2022/02/09 02:16:11;;;;;;;8.50;4.18;;;9.20;99.90;;;;;;5037469;28;20050;-70
2022/02/09 02:18:34;;;;;;;8.60;4.57;;;9.20;99.90;;;;;;5036674;28;20453;-70
2022/02/09 02:21:45;;;;;;;12.18;5.15;;;9.20;99.90;;;;;;5037164;28;20040;-70
2022/02/09 02:24:28;;;;;;;8.40;4.22;;;9.20;99.90;;;;;;5041078;28;20049;-70
2022/02/09 02:29:46;;;;;;;7.50;3.90;;;9.10;99.90;;;;;;5037596;28;20131;-70
2022/02/09 03:13:03;;;;;;;10.80;4.15;;;9.10;99.90;;;;;;5039576;28;20045;-70
2022/02/09 03:15:37;;;;;;;9.50;3.97;;;9.00;99.90;;;;;;5022294;28;20710;-70
2022/02/09 03:20:47;;;;;;;8.63;3.85;;;9.00;99.90;;;;;;5040321;28;20041;-70
2022/02/09 03:24:06;;;;;;;11.10;4.32;;;9.00;99.90;;;;;;5035185;28;20343;-70
2022/02/09 03:45:14;;;;;;;11.57;5.80;;;8.90;99.90;;;;;;5042581;28;20564;-70
2022/02/09 03:47:50;;;;;;;14.88;5.57;;;8.90;99.90;;;;;;5041326;28;20041;-70
2022/02/09 03:58:10;;;;;;;9.57;5.95;;;8.90;99.90;;;;;;5043722;28;20064;-70
2022/02/09 04:00:39;;;;;;;10.70;5.95;;;8.90;99.90;;;;;;5024603;28;20575;-70
2022/02/09 04:03:10;;;;;;;10.88;5.82;;;8.90;99.90;;;;;;5041110;28;20483;-70
2022/02/09 04:05:35;;;;;;;9.57;6.40;;;8.90;99.90;;;;;;5041509;28;22140;-70
2022/02/09 04:08:02;;;;;;;8.18;5.93;;;8.90;99.90;;;;;;5042327;28;20044;-70
2022/02/09 04:10:36;;;;;;;9.40;6.20;;;8.90;99.90;;;;;;5041370;28;20132;-70
2022/02/09 04:39:00;;;;;;;12.13;5.97;;;8.90;99.90;;;;;;5040249;28;20048;-70
2022/02/09 04:43:55;;;;;;;10.48;5.85;;;8.90;99.90;;;;;;5044614;28;20133;-70
2022/02/09 04:56:52;;;;;;;9.45;5.75;;;8.90;99.90;;;;;;5040579;28;20040;-70
2022/02/09 05:26:38;;;;;;;8.40;6.05;;;9.00;99.90;;;;;;5039865;28;20382;-70
2022/02/09 05:29:04;;;;;;;8.65;6.32;;;9.00;99.90;;;;;;5041313;28;20075;-70
2022/02/09 05:31:30;;;;;;;8.45;6.20;;;9.00;99.90;;;;;;5041195;28;20482;-70
2022/02/09 05:33:55;;;;;;;9.57;6.60;;;8.90;99.90;;;;;;5029874;28;20383;-70
2022/02/09 05:36:21;;;;;;;11.35;6.82;;;8.90;99.90;;;;;;5040755;28;20041;-69
2022/02/09 05:38:47;;;;;;;12.23;7.32;;;8.90;99.90;;;;;;5035821;28;20489;-69
2022/02/09 05:41:12;;;;;;;8.32;6.28;;;8.90;99.90;;;;;;5043943;28;20673;-70
2022/02/09 05:43:38;;;;;;;12.35;7.13;;;8.90;99.90;;;;;;5025375;28;20406;-68
2022/02/09 05:51:44;;;;;;;9.47;6.50;;;8.90;99.90;;;;;;5042373;28;20124;-70
2022/02/09 05:56:44;;;;;;;12.55;7.15;;;9.00;99.90;;;;;;5042694;28;20041;-68
2022/02/09 06:01:37;;;;;;;12.23;7.22;;;9.00;99.90;;;;;;5034876;28;20095;-69
2022/02/09 06:04:03;;;;;;;9.68;6.90;;;9.00;99.90;;;;;;5040090;28;20379;-69
2022/02/09 06:06:29;;;;;;;12.45;7.18;;;9.00;99.90;;;;;;5036755;28;20053;-69
2022/02/09 06:08:56;;;;;;;9.52;7.30;;;9.00;99.90;;;;;;5040118;28;20052;-69
2022/02/09 06:11:40;;;;;;;9.52;7.05;;;9.00;99.90;;;;;;5040163;28;20543;-69
2022/02/09 06:19:41;;;;;;;11.82;7.85;;;9.00;99.90;;;;;;5037681;28;20040;-69
2022/02/09 06:22:07;;;;;;;8.57;7.68;;;9.00;99.90;;;;;;5023499;28;21399;-69
2022/02/09 06:24:33;;;;;;;11.23;8.20;;;9.00;99.90;;;;;;5037633;28;20051;-69
2022/02/09 06:26:59;;;;;;;9.77;7.35;;;8.90;99.90;;;;;;5039428;28;20489;-69
2022/02/09 06:29:24;;;;;;;11.13;7.95;;;8.90;99.90;;;;;;5039693;28;20041;-69
2022/02/09 06:31:51;;;;;;;10.65;7.68;;;8.90;99.90;;;;;;5036315;28;21396;-69
2022/02/09 06:34:19;;;;;;;9.88;7.57;;;9.00;99.90;;;;;;5023726;28;20486;-69
2022/02/09 06:36:51;;;;;;;10.10;7.50;;;9.00;99.90;;;;;;5038681;28;20041;-69
2022/02/09 06:39:19;;;;;;;12.30;7.80;;;9.00;99.90;;;;;;5035204;28;20056;-69
2022/02/09 06:41:45;;;;;;;9.85;7.50;;;8.90;99.90;;;;;;5036260;28;20114;-69
2022/02/09 06:44:12;;;;;;;10.45;8.13;;;8.90;99.90;;;;;;5036556;28;20060;-70
2022/02/09 06:46:38;;;;;;;12.85;8.18;;;8.90;99.90;;;;;;5034994;28;20046;-69
2022/02/09 06:49:07;;;;;;;7.18;6.47;;;8.90;99.90;;;;;;5036551;28;20059;-69
2022/02/09 06:51:36;;;;;;;8.95;6.55;;;8.90;99.90;;;;;;5042236;28;20693;-69
2022/02/09 06:54:11;;;;;;;9.63;6.53;;;8.90;99.90;;;;;;5039451;28;20080;-69
2022/02/09 06:59:28;;;;;;;12.20;6.90;;;8.90;99.90;;;;;;5041584;28;20048;-70
2022/02/09 07:01:59;;;;;;;9.63;6.47;;;8.90;99.90;;;;;;5045292;28;20102;-69
2022/02/09 07:04:26;;;;;;;10.60;5.88;;;8.90;99.90;;;;;;5044221;28;20040;-69
2022/02/09 07:06:52;;;;;;;8.70;6.00;;;8.90;99.90;;;;;;5044932;28;20576;-69
2022/02/09 07:09:18;;;;;;;7.65;5.78;;;9.00;99.90;;;;;;5045669;28;20060;-69
2022/02/09 07:11:44;;;;;;;8.25;6.00;;;8.90;99.90;;;;;;5044136;28;20045;-70
2022/02/09 07:14:10;;;;;;;7.72;5.38;;;8.90;99.90;;;;;;5048305;28;20025;-69
2022/02/09 07:16:37;;;;;;;7.97;5.75;;;8.90;99.90;;;;;;5049286;28;20106;-69
2022/02/09 07:19:07;;;;;;;7.82;4.63;;;8.90;99.90;;;;;;5047736;28;20049;-69
2022/02/09 07:21:34;;;;;;;9.93;4.55;;;8.90;99.90;;;;;;5029093;28;20048;-69
2022/02/09 07:24:01;;;;;;;6.65;4.30;;;8.90;99.90;;;;;;5029452;28;20110;-69
2022/02/09 07:26:30;;;;;;;9.48;4.32;;;8.90;99.90;;;;;;5037404;28;20045;-70
2022/02/09 07:28:59;;;;;;;8.52;3.92;;;8.90;99.90;;;;;;5040425;28;20823;-70
2022/02/09 07:31:25;;;;;;;9.73;3.67;;;8.90;99.90;;;;;;5044529;28;20048;-70
2022/02/09 07:33:53;;;;;;;5.60;2.97;;;8.90;99.90;;;;;;5043016;28;20090;-70
2022/02/09 07:36:19;;;;;;;7.28;3.15;;;9.00;99.90;;;;;;5027170;28;20163;-70
2022/02/09 07:38:46;;;;;;;7.82;3.33;;;8.90;99.90;;;;;;5043022;28;20123;-70
2022/02/09 07:41:12;;;;;;;5.45;2.90;;;8.90;99.90;;;;;;5025655;28;20440;-70
2022/02/09 07:54:00;;;;;;;7.20;2.92;;;9.00;99.90;;;;;;5045019;28;20115;-70
2022/02/09 07:56:28;;;;;;;8.93;3.10;;;9.00;99.90;;;;;;5042279;28;20039;-70
2022/02/09 07:58:54;;;;;;;6.97;3.55;;;9.00;99.90;;;;;;5041044;28;20056;-70
2022/02/09 08:01:20;;;;;;;7.38;3.78;;;9.00;99.90;;;;;;5044591;28;20053;-70
2022/02/09 08:03:46;;;;;;;7.50;3.53;;;9.00;99.90;;;;;;5045633;28;20144;-70
2022/02/09 08:06:12;;;;;;;7.90;3.80;;;9.10;99.90;;;;;;5041797;28;20099;-70
2022/02/09 08:08:42;;;;;;;10.98;4.30;;;9.10;99.90;;;;;;5043859;28;20106;-70
2022/02/09 08:11:19;;;;;;;7.70;4.03;;;9.10;99.90;;;;;;5039419;28;20412;-70
2022/02/09 08:30:08;;;;;;;12.15;7.10;;;9.20;99.90;;;;;;5042405;28;20574;-71
2022/02/09 08:32:38;;;;;;;10.35;6.05;;;9.20;99.90;;;;;;5023142;28;20041;-70
2022/02/09 08:35:06;;;;;;;12.15;6.32;;;9.30;99.90;;;;;;5039730;28;20045;-71
2022/02/09 08:37:31;;;;;;;12.30;6.63;;;9.30;99.90;;;;;;5040091;28;20098;-70
2022/02/09 08:39:57;;;;;;;11.02;7.28;;;9.30;99.90;;;;;;5039604;28;20497;-70
2022/02/09 08:42:24;;;;;;;10.70;7.47;;;9.30;99.90;;;;;;5038027;28;20044;-70
2022/02/09 08:44:50;;;;;;;9.68;6.95;;;9.40;99.90;;;;;;5042498;28;20045;-70
2022/02/09 08:47:16;;;;;;;12.55;7.57;;;9.30;99.90;;;;;;5041447;28;20045;-71
2022/02/09 08:49:42;;;;;;;13.80;8.55;;;9.30;99.90;;;;;;5039382;28;20076;-71
2022/02/09 08:52:08;;;;;;;11.48;7.03;;;9.30;99.90;;;;;;5029118;28;20060;-71
2022/02/09 08:54:34;;;;;;;11.68;7.20;;;9.30;99.90;;;;;;5026429;28;20048;-71
2022/02/09 08:57:07;;;;;;;15.48;8.40;;;9.40;99.90;;;;;;5039461;28;20048;-71
2022/02/09 08:59:33;;;;;;;13.35;7.72;;;9.30;99.90;;;;;;5039662;28;20063;-71
2022/02/09 09:02:05;;;;;;;11.32;7.75;;;9.30;99.90;;;;;;5027228;28;20174;-70
2022/02/09 09:04:35;;;;;;;11.13;8.13;;;9.30;99.90;;;;;;5040283;28;20080;-70
2022/02/09 09:07:11;;;;;;;12.63;7.72;;;9.30;99.90;;;;;;5025316;28;20116;-70
2022/02/09 09:09:48;;;;;;;11.70;6.93;;;9.30;99.90;;;;;;5040306;28;20105;-71
2022/02/09 09:31:43;;;;;;;9.90;5.75;;;9.30;99.90;;;;;;5039759;28;20413;-70
2022/02/09 09:59:07;;;;;;;10.43;6.75;;;9.10;99.90;;;;;;5038756;28;20040;-70
2022/02/09 10:33:14;;;;;;;7.73;4.87;;;9.30;99.90;;;;;;5039659;28;20390;-69
2022/02/09 10:35:59;;;;;;;14.90;6.00;;;9.30;99.90;;;;;;5038531;28;20045;-68
2022/02/09 10:38:34;;;;;;;;;;;9.30;99.90;;;;;;5035861;28;20183;-69
2022/02/09 10:41:41;;;;;;;7.80;5.25;;;9.30;99.90;;;;;;5025269;28;19921;-69
2022/02/09 10:44:15;;;;;;;11.02;5.50;;;9.30;99.90;;;;;;5038075;28;20045;-69
2022/02/09 10:46:56;;;;;;;12.10;5.35;;;9.30;99.90;;;;;;5020997;28;20050;-69
2022/02/09 10:49:25;;;;;;;8.85;4.88;;;9.30;99.90;;;;;;5032369;28;20237;-69
2022/02/09 10:52:04;;;;;;;11.05;5.30;;;9.40;99.90;;;;;;5041600;28;20061;-70
2022/02/09 10:54:32;;;;;;;7.80;5.18;;;9.40;99.90;;;;;;5037453;28;20046;-70
2022/02/09 10:56:58;;;;;;;11.13;5.15;;;9.50;99.90;;;;;;5036727;28;20109;-70
2022/02/09 10:59:26;;;;;;;8.35;4.68;;;9.50;99.90;;;;;;5037303;28;20045;-70
2022/02/09 11:01:54;;;;;;;9.57;5.07;;;9.50;99.90;;;;;;5036513;28;20084;-69
2022/02/09 11:04:20;;;;;;;9.90;5.05;;;9.50;99.90;;;;;;5039473;28;20127;-69
2022/02/09 11:06:48;;;;;;;11.93;4.70;;;9.50;99.90;;;;;;5036462;28;20131;-69
2022/02/09 11:09:16;;;;;;;11.18;4.30;;;9.60;99.90;;;;;;5034320;28;20084;-69
2022/02/09 11:11:42;;;;;;;7.60;3.78;;;9.60;99.90;;;;;;5034467;28;20049;-70
2022/02/09 11:14:15;;;;;;;9.75;3.80;;;9.60;99.90;;;;;;5038989;28;20057;-70
2022/02/09 11:16:51;;;;;;;10.23;3.42;;;9.60;99.90;;;;;;5038638;28;20130;-70
2022/02/09 11:19:19;;;;;;;11.02;3.95;;;9.60;99.90;;;;;;5035627;28;20052;-70
2022/02/09 11:21:50;;;;;;;8.60;3.42;;;9.60;99.90;;;;;;5036184;28;20133;-69
2022/02/09 11:24:24;;;;;;;9.20;3.17;;;9.60;99.90;;;;;;5039799;28;20076;-69
2022/02/09 11:37:54;;;;;;;5.57;2.28;;;9.60;99.90;;;;;;5034801;28;20401;-70
2022/02/09 11:40:47;;;;;;;5.20;2.10;;;9.70;99.90;;;;;;5023935;28;20080;-69
2022/02/09 11:59:33;;;;;;;5.03;2.80;;;9.50;99.90;;;;;;5042360;28;20127;-70
2022/02/09 12:10:13;;;;;;;6.50;3.13;;;9.50;99.90;;;;;;5042170;28;20528;-70
2022/02/09 12:12:44;;;;;;;7.20;3.47;;;9.50;99.90;;;;;;5041756;28;20095;-70
2022/02/09 12:15:18;;;;;;;10.23;3.20;;;9.50;99.90;;;;;;5039045;28;20099;-70
2022/02/09 12:23:03;;;;;;;7.57;2.92;;;9.50;99.90;;;;;;5038103;28;20045;-69
2022/02/09 12:25:46;;;;;;;9.88;2.95;;;9.50;99.90;;;;;;5041427;28;20877;-70
2022/02/09 12:28:19;;;;;;;7.63;2.88;;;9.50;99.90;;;;;;5045784;28;20166;-70
2022/02/09 12:30:46;;;;;;;5.93;2.30;;;9.50;99.90;;;;;;5042260;28;20738;-70
2022/02/09 12:33:23;;;;;;;7.75;2.40;;;9.50;99.90;;;;;;5041665;28;20080;-69
2022/02/09 12:35:49;;;;;;;5.07;2.20;;;9.50;99.90;;;;;;5040971;28;20049;-70
2022/02/09 12:38:29;;;;;;;8.80;2.10;;;9.50;99.90;;;;;;5039418;28;20260;-70
2022/02/09 12:41:18;;;;;;;11.57;2.42;;;9.50;99.90;;;;;;5038026;28;20088;-70
2022/02/09 12:44:04;;;;;;;7.93;2.17;;;9.50;99.90;;;;;;5040573;28;20051;-70
2022/02/09 12:46:37;;;;;;;8.35;2.45;;;9.50;99.90;;;;;;5041220;28;20120;-70
2022/02/09 12:49:07;;;;;;;5.28;2.05;;;9.50;99.90;;;;;;5028178;28;20144;-70
2022/02/09 12:51:33;;;;;;;11.50;2.80;;;9.40;99.90;;;;;;5023761;28;20124;-70
2022/02/09 12:54:00;;;;;;;8.63;2.90;;;9.40;99.90;;;;;;5040028;28;20049;-70
2022/02/09 12:56:39;;;;;;;5.93;2.03;;;9.40;99.90;;;;;;5038477;28;20056;-70
2022/02/09 12:59:16;;;;;;;8.40;2.22;;;9.40;99.90;;;;;;5022049;28;20030;-70
2022/02/09 13:01:44;;;;;;;6.32;2.00;;;9.40;99.90;;;;;;5035773;28;20057;-69
2022/02/09 13:04:25;;;;;;;7.15;2.50;;;9.40;99.90;;;;;;5042012;28;20048;-69
2022/02/09 13:06:51;;;;;;;6.57;2.58;;;9.40;99.90;;;;;;5037718;28;20037;-69
2022/02/09 13:09:17;;;;;;;7.53;2.33;;;9.30;99.90;;;;;;5009082;28;20053;-69
2022/02/09 13:11:43;;;;;;;7.05;2.47;;;9.30;99.90;;;;;;5059156;28;20053;-69
2022/02/09 13:14:17;;;;;;;5.75;2.40;;;9.30;99.90;;;;;;5039102;28;20049;-69
2022/02/09 14:16:01;;;;;;;8.45;4.03;;;9.00;99.90;;;;;;5039093;28;20448;-70
2022/02/09 14:53:40;;;;;;;4.22;3.15;;;9.10;99.90;;;;;;5038083;28;20076;-70
2022/02/09 14:56:18;;;;;;;5.88;3.15;;;9.10;99.90;;;;;;5036760;28;20398;-71
2022/02/09 14:58:47;;;;;;;6.78;2.85;;;9.10;99.90;;;;;;5020384;28;20052;-71
2022/02/09 15:01:18;;;;;;;5.72;2.75;;;9.00;99.90;;;;;;5018856;28;20099;-71
2022/02/09 15:04:08;;;;;;;5.43;2.47;;;9.00;99.90;;;;;;5039722;28;20123;-71
2022/02/09 15:11:50;;;;;;;4.07;2.40;;;9.00;99.90;;;;;;5039032;28;19924;-71
2022/02/09 15:20:09;;;;;;;5.53;2.60;;;8.90;99.90;;;;;;5039299;28;20068;-71
2022/02/09 15:22:10;;;;;;;5.00;3.50;;;8.90;99.90;;;;;;5042136;28;20056;-71
2022/02/09 15:24:43;;;;;;;5.63;3.10;;;8.90;99.90;;;;;;5042901;28;20183;-71
2022/02/09 15:27:17;;;;;;;4.55;3.08;;;8.90;99.90;;;;;;5043905;28;20505;-70
2022/02/09 15:29:44;;;;;;;5.35;3.03;;;8.80;99.90;;;;;;5029592;28;20082;-70
2022/02/09 15:32:30;;;;;;;4.53;3.08;;;8.80;99.90;;;;;;5041767;28;20044;-72
2022/02/09 15:35:41;;;;;;;4.88;2.97;;;8.90;99.90;;;;;;5043812;28;20045;-71
2022/02/09 15:37:59;;;;;;;5.72;2.55;;;8.80;99.90;;;;;;5036984;28;20076;-71
2022/02/09 15:43:07;;;;;;;6.72;3.40;;;8.80;99.90;;;;;;5046096;28;20049;-71
2022/02/09 15:56:35;;;;;;;3.97;3.10;;;8.80;99.90;;;;;;5046065;28;20300;-71
2022/02/09 16:09:50;;;;;;;4.70;3.60;;;8.80;99.90;;;;;;5037592;28;20100;-71
2022/02/09 16:23:21;;;;;;;6.55;5.03;;;8.70;99.90;;;;;;5038663;28;20421;-71
2022/02/09 16:37:11;;;;;;;8.95;6.40;;;8.70;99.90;;;;;;5042558;28;20045;-71
2022/02/09 16:44:47;;;;;;;11.23;6.95;;;8.60;99.90;;;;;;5040902;28;20834;-70
2022/02/09 16:49:56;;;;;;;12.25;8.00;;;8.60;99.90;;;;;;5041885;28;20524;-71
2022/02/09 16:52:25;;;;;;;14.82;7.72;;;8.60;99.90;;;;;;5022852;28;20151;-70
2022/02/09 17:11:16;;;;;;;10.53;8.30;;;8.50;99.90;;;;;;5042257;28;20318;-71
2022/02/09 17:19:39;;;;;;;20.37;8.83;;;8.50;99.90;;;;;;5038693;28;20052;-70
2022/02/09 17:22:05;;;;;;;16.70;7.75;;;8.50;99.90;;;;;;5042271;28;20296;-71
2022/02/09 17:24:31;;;;;;;15.15;8.45;;;8.50;99.90;;;;;;5041828;28;20061;-70
2022/02/09 17:26:57;;;;;;;17.98;8.88;;;8.50;99.90;;;;;;5043164;28;20045;-70
2022/02/09 17:29:42;;;;;;;17.20;9.82;;;8.50;99.90;;;;;;5041548;28;20508;-70
2022/02/09 17:32:43;;;;;;;15.75;9.45;;;8.50;99.90;;;;;;5042484;28;20041;-70
2022/02/09 17:53:31;;;;;;;15.23;10.40;;;8.40;99.90;;;;;;5039861;28;20052;-70
2022/02/09 17:58:38;;;;;;;17.20;12.05;;;8.50;99.90;;;;;;5042703;28;20128;-70
2022/02/09 18:01:05;;;;;;;22.67;12.07;;;8.40;99.90;;;;;;5039021;28;20490;-70
2022/02/09 18:03:31;;;;;;;19.73;12.00;;;8.40;99.90;;;;;;5041492;28;20032;-70
2022/02/09 18:06:09;;;;;;;26.65;15.13;;;8.40;99.90;;;;;;5041940;28;20047;-70
2022/02/09 18:08:44;;;;;;;19.60;13.85;;;8.40;99.90;;;;;;5038271;28;20041;-70
2022/02/09 18:28:06;;;;;;;30.92;18.13;;;8.40;99.90;;;;;;5043318;28;20048;-70
2022/02/09 18:42:06;;;;;;;27.23;16.80;;;8.40;99.90;;;;;;5034458;28;20000;-70
2022/02/09 18:44:02;;;;;;;24.95;14.80;;;8.30;99.90;;;;;;5038629;28;20045;-70
2022/02/09 18:46:42;;;;;;;23.77;15.20;;;8.40;99.90;;;;;;5024371;28;20663;-70
2022/02/09 18:57:48;;;;;;;15.68;11.27;;;8.30;99.90;;;;;;5043121;28;20468;-70
2022/02/09 19:02:40;;;;;;;13.10;8.30;;;8.30;99.90;;;;;;5038565;28;20036;-71
2022/02/09 19:05:19;;;;;;;10.95;8.43;;;8.20;99.90;;;;;;5032952;28;20063;-71
2022/02/09 19:32:19;;;;;;;33.15;21.45;;;8.30;99.90;;;;;;5037102;28;20048;-70
2022/02/09 19:48:41;;;;;;;38.67;24.77;;;8.20;99.90;;;;;;5034444;28;20060;-70
2022/02/09 19:54:05;;;;;;;38.85;24.95;;;8.20;99.90;;;;;;5036833;28;20095;-70
2022/02/09 19:56:28;;;;;;;37.85;24.48;;;8.20;99.90;;;;;;5035899;28;20120;-70
2022/02/09 19:58:59;;;;;;;44.55;26.98;;;8.20;99.90;;;;;;5038838;28;20072;-70
2022/02/09 20:01:32;;;;;;;46.25;27.70;;;8.20;99.90;;;;;;5036193;28;20116;-70
2022/02/09 20:03:58;;;;;;;42.53;27.45;;;8.30;99.90;;;;;;5034013;28;20053;-70
2022/02/09 20:06:23;;;;;;;48.88;27.65;;;8.20;99.90;;;;;;5040243;28;20045;-70
2022/02/09 20:08:49;;;;;;;47.38;27.52;;;8.20;99.90;;;;;;5039818;28;20078;-70
2022/02/09 20:11:17;;;;;;;55.28;30.00;;;8.30;99.90;;;;;;5041041;28;20056;-70
2022/02/09 20:13:44;;;;;;;49.03;28.80;;;8.20;99.90;;;;;;5043603;28;22108;-70
2022/02/09 20:16:10;;;;;;;59.63;29.90;;;8.20;99.90;;;;;;5038912;28;20087;-70
2022/02/09 20:18:36;;;;;;;53.53;30.50;;;8.20;99.90;;;;;;5040223;28;20234;-70
2022/02/09 20:21:03;;;;;;;58.33;30.92;;;8.30;99.90;;;;;;5039807;28;20124;-70
2022/02/09 20:23:32;;;;;;;66.75;32.10;;;8.30;99.90;;;;;;5039816;28;20081;-70
2022/02/09 20:26:00;;;;;;;66.57;29.73;;;8.30;99.90;;;;;;5041063;28;20037;-70
2022/02/09 20:28:26;;;;;;;61.70;30.70;;;8.30;99.90;;;;;;5036996;28;20037;-70
2022/02/09 20:30:59;;;;;;;65.60;32.53;;;8.20;99.90;;;;;;5040997;28;20548;-70
2022/02/09 20:33:31;;;;;;;68.05;32.20;;;8.20;99.90;;;;;;5040906;28;20044;-70
2022/02/09 20:35:58;;;;;;;63.55;32.63;;;8.20;99.90;;;;;;5039533;28;20076;-70
2022/02/09 20:38:27;;;;;;;65.57;31.60;;;8.20;99.90;;;;;;5044326;28;20366;-70
2022/02/09 20:40:57;;;;;;;71.10;32.95;;;8.20;99.90;;;;;;5037315;28;20041;-70
2022/02/09 20:43:24;;;;;;;57.58;32.50;;;8.30;99.90;;;;;;5040953;28;20092;-70
2022/02/09 20:45:55;;;;;;;60.00;32.75;;;8.20;99.90;;;;;;5023954;28;20044;-70
2022/02/09 20:48:25;;;;;;;65.13;32.47;;;8.20;99.90;;;;;;5022381;28;20072;-70
2022/02/09 20:50:52;;;;;;;66.03;33.35;;;8.30;99.90;;;;;;5024750;28;20072;-70
2022/02/09 20:53:19;;;;;;;64.18;33.97;;;8.30;99.90;;;;;;5027104;28;20552;-70
2022/02/09 20:55:46;;;;;;;67.63;33.63;;;8.20;99.90;;;;;;5036107;28;20049;-70
2022/02/09 20:58:12;;;;;;;69.38;33.28;;;8.30;99.90;;;;;;5022659;28;20049;-70
2022/02/09 21:00:50;;;;;;;66.63;34.17;;;8.30;99.90;;;;;;5053260;28;20100;-70
2022/02/09 21:03:25;;;;;;;62.90;31.13;;;8.30;99.90;;;;;;5036693;28;20068;-70
2022/02/09 21:06:11;;;;;;;59.00;32.15;;;8.20;99.90;;;;;;5043152;28;20052;-70
2022/02/09 21:19:30;;;;;;;64.82;34.25;;;8.30;99.90;;;;;;5039973;28;20331;-70
2022/02/09 21:25:08;;;;;;;58.97;33.03;;;8.30;99.90;;;;;;5040243;28;20075;-70
2022/02/09 21:42:03;;;;;;;71.97;36.60;;;8.30;99.90;;;;;;5041132;28;20071;-70
2022/02/09 21:50:50;;;;;;;67.57;34.35;;;8.30;99.90;;;;;;5038560;28;19967;-70
2022/02/09 21:52:59;;;;;;;76.15;37.13;;;8.30;99.90;;;;;;5039595;28;20045;-70
2022/02/09 21:55:44;;;;;;;78.15;38.35;;;8.30;99.90;;;;;;5040677;28;20041;-70
2022/02/09 21:58:24;;;;;;;74.50;38.00;;;8.30;99.90;;;;;;5038740;28;20098;-70
2022/02/09 22:01:13;;;;;;;73.32;37.90;;;8.30;99.90;;;;;;5024458;28;20046;-70
2022/02/09 22:06:38;;;;;;;75.63;39.03;;;8.30;99.90;;;;;;5040554;28;20525;-70
2022/02/09 22:23:34;;;;;;;82.07;39.70;;;8.40;99.90;;;;;;5035922;28;21920;-70
2022/02/09 22:28:42;;;;;;;85.40;38.38;;;8.40;99.90;;;;;;5039785;28;20139;-70
2022/02/09 22:55:14;;;;;;;70.75;34.40;;;8.40;99.90;;;;;;5024327;28;20068;-70
2022/02/09 22:57:50;;;;;;;81.90;37.78;;;8.40;99.90;;;;;;5040154;28;20178;-70
2022/02/09 23:03:28;;;;;;;88.07;37.50;;;8.40;99.90;;;;;;5036160;28;20066;-70
2022/02/09 23:06:15;;;;;;;82.53;37.58;;;8.40;99.90;;;;;;5038520;28;20127;-70
2022/02/09 23:14:03;;;;;;;85.32;38.28;;;8.40;99.90;;;;;;5037396;28;20450;-70
2022/02/09 23:57:44;;;;;;;73.07;33.97;;;8.40;99.90;;;;;;5039778;28;20079;-69
